createdAt,value
2022-09-05T00:00:11.858Z,7.80
2022-09-05T00:05:29.375Z,7.70
2022-09-05T00:11:43.204Z,7.60
2022-09-05T00:16:54.548Z,7.60
2022-09-05T00:24:30.499Z,7.70
2022-09-05T00:28:26.494Z,7.80
2022-09-05T00:33:36.755Z,7.80
2022-09-05T00:38:42.705Z,7.60
2022-09-05T00:43:50.116Z,7.50
2022-09-05T00:48:59.031Z,7.30
2022-09-05T00:54:01.915Z,7.20
2022-09-05T00:59:26.994Z,7.20
2022-09-05T01:04:34.800Z,7.10
2022-09-05T01:09:45.324Z,7.00
2022-09-05T01:15:21.054Z,7.00
2022-09-05T01:20:46.675Z,7.00
2022-09-05T01:26:19.804Z,7.10
2022-09-05T01:31:33.871Z,7.10
2022-09-05T01:36:45.301Z,7.00
2022-09-05T01:42:01.029Z,7.10
2022-09-05T01:47:40.241Z,7.00
2022-09-05T01:53:25.653Z,6.90
2022-09-05T01:58:33.288Z,6.90
2022-09-05T02:04:00.155Z,6.70
2022-09-05T02:09:42.940Z,6.60
2022-09-05T02:15:00.632Z,6.70
2022-09-05T02:20:25.298Z,6.80
2022-09-05T02:26:01.612Z,7.00
2022-09-05T02:31:20.746Z,7.00
2022-09-05T02:36:42.708Z,7.10
2022-09-05T02:45:17.797Z,7.20
2022-09-05T02:47:22.766Z,7.20
2022-09-05T02:57:24.356Z,7.30
2022-09-05T02:58:14.540Z,7.10
2022-09-05T03:03:35.668Z,6.80
2022-09-05T03:09:17.294Z,6.70
2022-09-05T03:14:37.153Z,6.50
2022-09-05T03:20:17.267Z,6.40
2022-09-05T03:25:37.786Z,6.30
2022-09-05T03:31:22.262Z,6.30
2022-09-05T03:36:49.845Z,6.40
2022-09-05T03:42:17.482Z,6.60
2022-09-05T03:47:32.707Z,6.80
2022-09-05T03:57:18.471Z,7.10
2022-09-05T03:58:56.067Z,7.20
2022-09-05T04:08:28.481Z,7.30
2022-09-05T04:09:50.509Z,7.40
2022-09-05T04:15:07.563Z,7.40
2022-09-05T04:20:40.297Z,7.70
2022-09-05T04:26:20.999Z,7.80
2022-09-05T04:31:32.160Z,7.90
2022-09-05T04:36:36.461Z,8.00
2022-09-05T04:42:04.012Z,8.00
2022-09-05T04:47:24.797Z,7.90
2022-09-05T04:53:01.023Z,7.90
2022-09-05T04:58:27.492Z,8.00
2022-09-05T05:06:10.259Z,8.30
2022-09-05T05:09:24.250Z,8.80
2022-09-05T05:18:07.221Z,9.50
2022-09-05T05:20:39.689Z,10.30
2022-09-05T05:25:51.111Z,11.10
2022-09-05T05:30:59.843Z,12.00
2022-09-05T05:36:07.571Z,12.20
2022-09-05T05:41:37.659Z,13.20
2022-09-05T05:46:42.505Z,13.50
2022-09-05T05:52:01.538Z,13.00
2022-09-05T05:57:32.964Z,12.10
2022-09-05T06:03:24.790Z,11.60
2022-09-05T06:13:02.293Z,11.60
2022-09-05T06:14:57.997Z,11.50
2022-09-05T06:22:05.589Z,11.60
2022-09-05T06:26:01.052Z,11.80
2022-09-05T06:31:30.325Z,12.00
2022-09-05T06:37:01.392Z,12.70
2022-09-05T06:42:43.787Z,18.80
2022-09-05T06:47:46.312Z,21.10
2022-09-05T06:53:37.490Z,23.20
2022-09-05T06:59:16.275Z,26.40
2022-09-05T07:05:23.459Z,28.00
2022-09-05T07:10:37.492Z,25.20
2022-09-05T07:15:41.938Z,24.70
2022-09-05T07:21:17.729Z,20.10
2022-09-05T07:26:51.427Z,19.50
2022-09-05T07:31:48.560Z,18.30
2022-09-05T07:36:59.204Z,18.00
2022-09-05T07:42:25.977Z,18.10
2022-09-05T07:47:31.498Z,18.60
2022-09-05T07:56:54.147Z,18.90
2022-09-05T07:58:07.772Z,21.30
2022-09-05T08:03:14.975Z,22.90
2022-09-05T08:08:23.137Z,24.00
2022-09-05T08:13:47.094Z,22.50
2022-09-05T08:18:51.685Z,20.70
2022-09-05T08:23:57.287Z,18.30
2022-09-05T08:29:04.704Z,17.90
2022-09-05T08:34:31.455Z,18.00
2022-09-05T08:39:48.375Z,16.90
2022-09-05T08:46:39.918Z,16.70
2022-09-05T08:51:21.556Z,16.30
2022-09-05T08:56:31.747Z,16.90
2022-09-05T09:02:46.253Z,18.40
2022-09-05T09:07:51.478Z,22.20
2022-09-05T09:13:02.961Z,24.90
2022-09-05T09:18:19.066Z,28.30
2022-09-05T09:23:31.722Z,29.70
2022-09-05T09:29:03.875Z,27.10
2022-09-05T09:34:17.489Z,23.90
2022-09-05T09:39:46.621Z,19.60
2022-09-05T09:44:52.301Z,18.40
2022-09-05T09:50:12.024Z,19.10
2022-09-05T09:55:52.159Z,19.40
2022-09-05T10:01:36.497Z,18.70
2022-09-05T10:10:47.493Z,20.10
2022-09-05T10:17:48.650Z,21.40
2022-09-05T10:22:59.601Z,19.00
2022-09-05T10:28:01.336Z,18.40
2022-09-05T10:35:15.399Z,18.40
2022-09-05T10:39:21.167Z,18.50
2022-09-05T10:44:41.397Z,16.90
2022-09-05T10:49:46.027Z,17.50
2022-09-05T10:55:14.832Z,17.70
2022-09-05T11:02:18.889Z,17.00
2022-09-05T11:06:11.358Z,16.90
2022-09-05T11:11:34.862Z,16.60
2022-09-05T11:16:50.363Z,16.00
2022-09-05T11:22:07.409Z,16.50
2022-09-05T11:27:27.924Z,16.70
2022-09-05T11:37:41.674Z,16.20
2022-09-05T11:40:06.571Z,16.20
2022-09-05T11:44:29.694Z,16.10
2022-09-05T11:49:43.406Z,16.30
2022-09-05T11:55:20.945Z,16.50
2022-09-05T12:00:33.575Z,16.60
2022-09-05T12:06:13.887Z,16.40
2022-09-05T12:11:52.945Z,16.30
2022-09-05T12:17:35.467Z,15.70
2022-09-05T12:22:39.063Z,15.80
2022-09-05T12:36:02.573Z,15.70
2022-09-05T12:40:59.795Z,16.00
2022-09-05T12:42:08.586Z,15.50
2022-09-05T12:44:45.586Z,15.70
2022-09-05T12:50:14.328Z,15.60
2022-09-05T12:55:16.563Z,15.80
2022-09-05T13:03:06.198Z,15.90
2022-09-05T13:06:00.952Z,16.00
2022-09-05T13:14:50.708Z,16.00
2022-09-05T13:16:29.451Z,15.50
2022-09-05T13:21:31.664Z,15.30
2022-09-05T13:26:52.188Z,15.10
2022-09-05T13:38:04.023Z,15.30
2022-09-05T13:38:19.332Z,15.50
2022-09-05T13:43:15.336Z,15.30
2022-09-05T13:54:29.604Z,15.00
2022-09-05T13:59:42.156Z,14.90
2022-09-05T14:05:07.382Z,14.90
2022-09-05T14:10:38.405Z,14.90
2022-09-05T14:15:52.672Z,14.90
2022-09-05T14:21:16.050Z,14.70
2022-09-05T14:26:23.804Z,14.60
2022-09-05T14:37:34.057Z,14.70
2022-09-05T14:37:49.876Z,14.60
2022-09-05T14:43:17.451Z,14.50
2022-09-05T14:48:40.743Z,14.40
2022-09-05T14:54:11.791Z,14.20
2022-09-05T15:02:41.795Z,14.30
2022-09-05T15:05:14.797Z,14.20
2022-09-05T15:12:18.561Z,14.30
2022-09-05T15:15:59.003Z,14.20
2022-09-05T15:21:34.105Z,13.90
2022-09-05T15:26:47.982Z,13.80
2022-09-05T15:32:21.564Z,13.80
2022-09-05T15:37:23.576Z,13.80
2022-09-05T15:42:31.469Z,13.70
2022-09-05T15:47:33.918Z,13.60
2022-09-05T15:52:43.326Z,13.60
2022-09-05T15:57:55.476Z,13.50
2022-09-05T16:03:18.653Z,13.30
2022-09-05T16:10:49.438Z,13.10
2022-09-05T16:13:52.908Z,13.00
2022-09-05T16:23:34.266Z,12.90
2022-09-05T16:24:37.234Z,12.80
2022-09-05T16:29:51.929Z,12.70
2022-09-05T16:34:59.841Z,12.60
2022-09-05T16:40:12.281Z,12.70
2022-09-05T16:45:31.947Z,12.80
2022-09-05T16:50:50.082Z,12.80
2022-09-05T16:56:01.521Z,12.80
2022-09-05T17:01:38.896Z,12.80
2022-09-05T17:06:56.463Z,12.70
2022-09-05T17:12:07.513Z,12.50
2022-09-05T17:18:20.066Z,12.50
2022-09-05T17:26:24.963Z,12.40
2022-09-05T17:29:43.101Z,12.40
2022-09-05T17:33:44.710Z,12.40
2022-09-05T17:39:44.616Z,12.40
2022-09-05T17:44:59.907Z,12.40
2022-09-05T17:50:15.624Z,12.40
2022-09-05T17:55:18.477Z,12.40
2022-09-05T18:00:48.085Z,12.20
2022-09-05T18:05:56.935Z,11.90
2022-09-05T18:11:13.973Z,11.60
2022-09-05T18:16:30.143Z,11.30
2022-09-05T18:21:55.748Z,11.00
2022-09-05T18:27:36.527Z,10.80
2022-09-05T18:32:54.198Z,10.70
2022-09-05T18:38:19.282Z,10.40
2022-09-05T18:43:46.405Z,10.30
2022-09-05T18:50:24.718Z,10.30
2022-09-05T18:55:34.018Z,10.50
2022-09-05T19:00:46.489Z,10.70
2022-09-05T19:06:35.044Z,10.80
2022-09-05T19:11:37.168Z,10.80
2022-09-05T19:16:43.041Z,10.90
2022-09-05T19:21:57.260Z,11.00
2022-09-05T19:30:31.160Z,11.20
2022-09-05T19:37:02.461Z,11.10
2022-09-05T19:38:04.375Z,11.20
2022-09-05T19:47:35.381Z,11.20
2022-09-05T19:48:34.832Z,11.20
2022-09-05T19:54:04.072Z,11.10
2022-09-05T19:59:22.622Z,10.90
2022-09-05T20:04:26.819Z,10.60
2022-09-05T20:09:28.703Z,10.30
2022-09-05T20:14:34.568Z,10.20
2022-09-05T20:19:36.435Z,10.20
2022-09-05T20:24:39.152Z,10.30
2022-09-05T20:29:55.742Z,10.40
2022-09-05T20:37:15.772Z,10.50
2022-09-05T20:43:21.190Z,10.60
2022-09-05T20:46:17.464Z,10.60
2022-09-05T20:54:18.044Z,10.60
2022-09-05T20:56:36.265Z,10.60
2022-09-05T21:01:42.561Z,10.70
2022-09-05T21:06:44.581Z,10.60
2022-09-05T21:11:50.675Z,10.60
2022-09-05T21:17:00.000Z,10.60
2022-09-05T21:22:21.588Z,10.70
2022-09-05T21:27:25.069Z,10.80
2022-09-05T21:32:38.410Z,10.70
2022-09-05T21:37:44.284Z,10.70
2022-09-05T21:47:33.231Z,10.80
2022-09-05T21:48:16.633Z,10.60
2022-09-05T21:55:06.416Z,10.50
2022-09-05T21:59:24.727Z,10.40
2022-09-05T22:04:23.955Z,10.40
2022-09-05T22:09:25.797Z,10.40
2022-09-05T22:14:27.570Z,10.50
2022-09-05T22:19:36.903Z,10.40
2022-09-05T22:24:39.836Z,10.40
2022-09-05T22:29:41.932Z,10.40
2022-09-05T22:34:43.705Z,10.30
2022-09-05T22:39:45.855Z,10.20
2022-09-05T22:44:48.235Z,10.20
2022-09-05T22:49:50.096Z,10.10
2022-09-05T22:54:51.897Z,10.10
2022-09-05T22:59:54.211Z,10.10
2022-09-05T23:04:56.016Z,10.10
2022-09-05T23:09:58.552Z,10.00
2022-09-05T23:15:00.398Z,10.00
2022-09-05T23:20:02.683Z,9.90
2022-09-05T23:25:05.573Z,9.90
2022-09-05T23:30:08.428Z,10.00
2022-09-05T23:35:10.287Z,10.00
2022-09-05T23:40:13.730Z,9.90
2022-09-05T23:45:15.605Z,9.90
2022-09-05T23:50:18.127Z,9.90
2022-09-05T23:55:22.483Z,9.80
